Airfield :
LOGIN :

Register | Disclaimer

   EN    FR    IT 

 










Legend :    VFR   Marginal VFR   IFR   Intensive IFR   Very Intensive IFR
Visi :
Ceiling :
>= 8 km
>= 3000ft
5 to 8 km
1000 to 3000 ft
1500m to 5 km
500 to 1000 ft
800 to 1500m
200 to 500 ft
< 800m
< 200 ft
Symbols :   Thunderstorms  Fog  Heavy snow  Heavy precipitations  Wind > 20 kt
SIGMETs :     Misc.  Thunderstorms  Icing  Turbulence  Mountain Waves  Volcanic Ashes






- Airport Elevation : -13 ft
- IATA code : LEY


EHLE - Lelystad

CURRENT METAR :
  • 301325Z AUTO 20012KT 0700 R23/1100N FG VV001 02/02 Q1019 TEMPO 1200

EXPIRED METARs :
  • 301255Z AUTO 20012KT 1100 R23/1400D BR OVC002 02/02 Q1020 TEMPO 1200
  • 301225Z AUTO 20011KT 170V230 1200 R23/1600N BR OVC002 01/01 Q1021 TEMPO 1200
  • 301155Z AUTO 20011KT 1600 BR OVC003 01/01 Q1021 TEMPO 1200
  • 301125Z AUTO 20009KT 170V230 1600 BR OVC003 01/01 Q1022 TEMPO 1200
  • 301055Z AUTO 20009KT 170V230 1500 BR OVC003 01/00 Q1022 BECMG -DZ SCT002 BKN004

TAF TAF EHLE
Valid from the 30 at 12:00 until the 01 at 18:00 UTC


301119Z 3012/0118 20010KT 2000 BR -DZRA SCT002 BKN003
TEMPO 3012/3018 1200 DZRA BKN002
BECMG 3015/3018 25010KT 4000 RADZ SCT003 BKN005
BECMG 3020/3022 33015G25KT 9999 NSW SCT020
PROB40
TEMPO 3021/0112 34020G33KT 6000 SHRA SCT018CB BKN030
BECMG 0114/0117 02010KT



MET'MAP, your aeronautical weather chart ! - Copyright ORBIFLY December 2007 - Disclaimer

ORBIFLY MET'MAP TEAM :

Programming & Development : Alexandra Zaïnal
Concept & original design : Baudouin d'Aumeries
Assistance for programming : Marc-Olivier Méhu
Technical & hardware support : Manuel Goepfert

Contact : metmap@orbifly.com




SOURCES & CREDITS :

   NOAA